Time;durP1;ratioP1;P1;durP2;ratioP2;P2;SDS_P1;SDS_P2;PMS_P1;PMS_P2;Temp;Humidity;BMP_temperature;BMP_pressure;BME280_temperature;BME280_humidity;BME280_pressure;Samples;Min_cycle;Max_cycle;Signal;HPM_P1;HPM_P2
2023/03/20 00:34:16;;;;;;;24.27;19.70;;;13.20;1.00;;;;;;5150807;27;20417;-47
2023/03/20 00:36:42;;;;;;;26.92;21.08;;;13.10;1.00;;;;;;5142950;27;20379;-47
2023/03/20 00:39:08;;;;;;;25.35;20.33;;;13.10;1.00;;;;;;5130332;28;20011;-54
2023/03/20 00:41:43;;;;;;;23.88;20.13;;;13.10;1.00;;;;;;5127653;27;20410;-47
2023/03/20 00:44:23;;;;;;;26.50;20.80;;;13.20;1.00;;;;;;5117523;28;20020;-49
2023/03/20 00:46:58;;;;;;;24.73;21.85;;;13.20;1.00;;;;;;5122451;27;20122;-51
2023/03/20 00:49:31;;;;;;;23.42;20.80;;;13.30;1.00;;;;;;5129965;27;20608;-49
2023/03/20 00:51:57;;;;;;;24.08;20.60;;;13.30;1.00;;;;;;5132720;27;20031;-50
2023/03/20 00:54:23;;;;;;;24.17;20.73;;;13.40;1.00;;;;;;5129110;28;20060;-51
2023/03/20 00:56:51;;;;;;;27.77;22.30;;;13.40;1.00;;;;;;5134322;27;20020;-48
2023/03/20 00:59:21;;;;;;;27.40;22.33;;;13.40;1.00;;;;;;5130347;27;20131;-52
2023/03/20 01:01:48;;;;;;;24.17;21.13;;;13.40;1.00;;;;;;5135860;27;20445;-51
2023/03/20 01:04:17;;;;;;;26.35;21.25;;;13.40;1.00;;;;;;5129919;28;20039;-53
2023/03/20 01:06:43;;;;;;;23.38;20.77;;;13.40;1.00;;;;;;5124384;28;20034;-50
2023/03/20 01:09:09;;;;;;;24.38;21.75;;;13.30;1.00;;;;;;5128449;28;20047;-49
2023/03/20 01:11:37;;;;;;;25.45;21.50;;;13.40;1.00;;;;;;5133384;27;20019;-51
2023/03/20 01:14:04;;;;;;;23.45;20.48;;;13.40;1.00;;;;;;5111940;28;20101;-48
2023/03/20 01:16:30;;;;;;;27.70;21.83;;;13.40;1.00;;;;;;5133992;27;20076;-49
2023/03/20 01:18:56;;;;;;;27.02;23.23;;;13.40;1.00;;;;;;5118331;27;20035;-51
2023/03/20 01:21:22;;;;;;;26.20;22.45;;;13.40;1.00;;;;;;5133270;27;20031;-50
2023/03/20 01:23:49;;;;;;;24.92;20.88;;;13.40;1.00;;;;;;5131206;27;20043;-51
2023/03/20 01:26:48;;;;;;;27.77;21.38;;;13.40;1.00;;;;;;5130664;27;20028;-50
2023/03/20 01:29:19;;;;;;;25.65;21.45;;;13.40;1.00;;;;;;5070377;28;20036;-49
2023/03/20 01:32:11;;;;;;;24.33;21.75;;;13.40;1.00;;;;;;5118442;27;20033;-52
2023/03/20 01:34:37;;;;;;;26.95;21.73;;;13.40;1.00;;;;;;5089378;28;20042;-48
2023/03/20 01:37:03;;;;;;;26.52;21.35;;;13.40;1.00;;;;;;5091787;28;20389;-49
2023/03/20 01:39:32;;;;;;;23.05;20.55;;;13.40;1.00;;;;;;5092614;28;20040;-50
2023/03/20 01:41:59;;;;;;;27.58;22.85;;;13.40;1.00;;;;;;5089726;28;20028;-50
2023/03/20 01:44:30;;;;;;;26.92;23.33;;;13.30;1.00;;;;;;5067555;28;20029;-48
2023/03/20 01:46:57;;;;;;;33.20;23.73;;;13.30;1.00;;;;;;5073841;28;20021;-50
2023/03/20 01:49:22;;;;;;;26.38;22.88;;;13.30;1.00;;;;;;5083554;28;20035;-51
2023/03/20 01:51:49;;;;;;;27.85;22.85;;;13.20;1.00;;;;;;5076038;28;20028;-51
2023/03/20 01:54:31;;;;;;;25.80;22.15;;;13.20;1.00;;;;;;5068309;28;20510;-53
2023/03/20 01:57:06;;;;;;;32.28;24.40;;;13.30;1.00;;;;;;5079241;28;20032;-52
2023/03/20 01:59:38;;;;;;;25.98;23.20;;;13.20;1.00;;;;;;5080790;28;20039;-49
2023/03/20 02:02:05;;;;;;;28.17;23.92;;;13.20;1.00;;;;;;5076352;28;20028;-50
2023/03/20 02:04:43;;;;;;;30.27;24.10;;;13.20;1.00;;;;;;5069460;28;20072;-50
2023/03/20 02:07:11;;;;;;;27.75;22.27;;;13.20;1.00;;;;;;5066456;28;20060;-48
2023/03/20 02:09:37;;;;;;;27.90;23.67;;;13.20;1.00;;;;;;5074443;28;20020;-49
2023/03/20 02:12:03;;;;;;;27.48;22.80;;;13.20;1.00;;;;;;5073871;28;20493;-49
2023/03/20 02:14:31;;;;;;;27.08;22.00;;;13.20;1.00;;;;;;5073767;28;20031;-48
2023/03/20 02:16:57;;;;;;;27.08;23.00;;;13.20;1.00;;;;;;5084803;28;20143;-48
2023/03/20 02:19:42;;;;;;;28.17;22.42;;;13.20;1.00;;;;;;5071270;28;20112;-53
2023/03/20 02:22:55;;;;;;;27.20;22.70;;;13.10;1.00;;;;;;5062892;28;20115;-52
2023/03/20 02:25:37;;;;;;;25.15;21.05;;;13.10;1.00;;;;;;5074696;28;20029;-51
2023/03/20 02:28:27;;;;;;;25.58;22.73;;;13.10;1.00;;;;;;5072795;28;20028;-54
2023/03/20 02:31:24;;;;;;;27.08;22.58;;;13.10;1.00;;;;;;5075030;28;20458;-49
2023/03/20 02:34:05;;;;;;;26.02;21.77;;;13.10;1.00;;;;;;5099365;27;20810;-48
2023/03/20 02:36:52;;;;;;;27.52;23.27;;;13.00;1.00;;;;;;5120395;27;20039;-47
2023/03/20 02:39:17;;;;;;;28.27;23.55;;;13.00;1.00;;;;;;5112289;27;20030;-49
2023/03/20 02:42:18;;;;;;;25.42;21.60;;;13.00;1.00;;;;;;5119706;27;20385;-50
2023/03/20 02:44:50;;;;;;;27.35;23.33;;;13.00;1.00;;;;;;5120712;27;20039;-51
2023/03/20 02:47:34;;;;;;;27.98;23.27;;;13.00;1.00;;;;;;5117076;27;20020;-50
2023/03/20 02:50:00;;;;;;;29.55;23.38;;;12.90;1.00;;;;;;5124891;27;20027;-52
2023/03/20 02:52:55;;;;;;;28.90;24.00;;;12.90;1.00;;;;;;5109353;28;20126;-51
2023/03/20 02:55:39;;;;;;;;;;;12.90;1.00;;;;;;5110572;28;20541;-49
2023/03/20 02:58:41;;;;;;;29.25;24.48;;;12.80;1.00;;;;;;5113984;28;19908;-50
2023/03/20 03:01:15;;;;;;;28.48;23.55;;;12.80;1.00;;;;;;5112964;27;20569;-48
2023/03/20 03:03:50;;;;;;;28.48;24.88;;;12.80;1.00;;;;;;5114780;28;20153;-50
2023/03/20 03:06:33;;;;;;;29.40;24.60;;;12.80;1.00;;;;;;5109958;27;20103;-50
2023/03/20 03:09:21;;;;;;;29.00;24.27;;;12.80;1.00;;;;;;5109559;28;20031;-48
2023/03/20 03:12:05;;;;;;;28.48;24.05;;;12.80;1.00;;;;;;5070714;28;20047;-47
2023/03/20 03:14:42;;;;;;;30.58;24.80;;;12.80;1.00;;;;;;5113777;28;20030;-49
2023/03/20 03:17:10;;;;;;;30.55;24.23;;;12.80;1.00;;;;;;5114023;27;20030;-47
2023/03/20 03:19:38;;;;;;;31.30;24.98;;;12.70;1.00;;;;;;5110776;28;20058;-48
2023/03/20 03:22:04;;;;;;;31.80;24.55;;;12.70;1.00;;;;;;5113416;27;20024;-53
2023/03/20 03:24:35;;;;;;;28.75;25.25;;;12.70;1.00;;;;;;5113428;28;20126;-50
2023/03/20 03:27:09;;;;;;;28.85;25.05;;;12.70;1.00;;;;;;5123443;27;20084;-48
2023/03/20 03:29:38;;;;;;;29.85;24.35;;;12.80;1.00;;;;;;5095920;28;20031;-48
2023/03/20 03:32:06;;;;;;;26.30;23.05;;;12.70;1.00;;;;;;5113939;28;20122;-48
2023/03/20 03:34:34;;;;;;;33.38;26.20;;;12.70;1.00;;;;;;5112791;27;20080;-49
2023/03/20 03:37:11;;;;;;;30.00;24.13;;;12.70;1.00;;;;;;5127101;27;20015;-47
2023/03/20 03:39:47;;;;;;;32.15;24.48;;;12.70;1.00;;;;;;5104324;27;20019;-47
2023/03/20 03:42:37;;;;;;;30.83;25.05;;;12.70;1.00;;;;;;5114167;28;20496;-50
2023/03/20 03:45:18;;;;;;;29.20;23.58;;;12.70;1.00;;;;;;5116333;27;20039;-50
2023/03/20 03:47:51;;;;;;;27.60;24.38;;;12.70;1.00;;;;;;5095715;28;20042;-51
2023/03/20 03:50:28;;;;;;;29.27;24.27;;;12.70;1.00;;;;;;5122413;27;20020;-49
2023/03/20 03:52:58;;;;;;;28.42;24.15;;;12.60;1.00;;;;;;5105074;27;20172;-49
2023/03/20 03:55:34;;;;;;;28.73;24.42;;;12.60;1.00;;;;;;5118332;27;20328;-47
2023/03/20 03:58:12;;;;;;;31.90;23.85;;;12.60;1.00;;;;;;5113536;27;20047;-49
2023/03/20 04:00:42;;;;;;;30.30;26.20;;;12.60;1.00;;;;;;5100442;28;20030;-50
2023/03/20 04:03:09;;;;;;;27.20;22.92;;;12.60;1.00;;;;;;5113961;28;20162;-51
2023/03/20 04:05:37;;;;;;;28.38;23.92;;;12.60;1.00;;;;;;5118040;27;20023;-53
2023/03/20 04:08:05;;;;;;;28.15;24.27;;;12.50;1.00;;;;;;5113654;28;20110;-48
2023/03/20 04:10:30;;;;;;;36.08;24.25;;;12.50;1.00;;;;;;5127614;27;20023;-49
2023/03/20 04:12:56;;;;;;;30.45;25.70;;;12.50;1.00;;;;;;5113956;27;20093;-49
2023/03/20 04:15:22;;;;;;;30.73;25.75;;;12.40;1.00;;;;;;5113191;27;20483;-48
2023/03/20 04:17:48;;;;;;;31.52;26.30;;;12.50;1.00;;;;;;5099154;28;20396;-50
2023/03/20 04:20:15;;;;;;;32.03;25.40;;;12.40;1.00;;;;;;5122490;27;20023;-49
2023/03/20 04:22:40;;;;;;;30.50;26.88;;;12.50;1.00;;;;;;5117550;27;20467;-51
2023/03/20 04:25:08;;;;;;;34.13;28.08;;;12.40;1.00;;;;;;5103277;28;20020;-50
2023/03/20 04:27:34;;;;;;;32.88;26.75;;;12.40;1.00;;;;;;5113400;28;20020;-48
2023/03/20 04:30:00;;;;;;;31.52;27.48;;;12.40;1.00;;;;;;5102903;28;20027;-49
2023/03/20 04:32:26;;;;;;;34.63;27.95;;;12.50;1.00;;;;;;5121608;28;20095;-51
2023/03/20 04:34:51;;;;;;;34.42;26.85;;;12.50;1.00;;;;;;5098199;28;20362;-49
2023/03/20 04:37:17;;;;;;;30.40;25.98;;;12.50;1.00;;;;;;5103211;28;20078;-51
2023/03/20 04:39:43;;;;;;;31.40;25.98;;;12.50;1.00;;;;;;5121100;28;20027;-51
2023/03/20 04:42:10;;;;;;;38.28;28.92;;;12.50;1.00;;;;;;5095424;28;20023;-48
2023/03/20 04:44:36;;;;;;;33.20;27.20;;;12.40;1.00;;;;;;5104917;28;20472;-50
2023/03/20 04:47:01;;;;;;;35.08;27.33;;;12.50;1.00;;;;;;5113514;28;20028;-50
2023/03/20 04:49:27;;;;;;;33.67;28.58;;;12.40;1.00;;;;;;5098303;28;20464;-54
2023/03/20 04:51:54;;;;;;;33.17;28.60;;;12.40;1.00;;;;;;5114872;28;20027;-49
2023/03/20 04:54:20;;;;;;;33.17;28.38;;;12.40;1.00;;;;;;5116669;28;20541;-48
2023/03/20 04:56:46;;;;;;;34.28;28.25;;;12.40;1.00;;;;;;5102840;28;20067;-49
2023/03/20 04:59:12;;;;;;;34.40;28.38;;;12.30;1.00;;;;;;5099471;28;20020;-50
2023/03/20 05:01:43;;;;;;;33.90;27.85;;;12.40;1.00;;;;;;5121016;28;20049;-48
2023/03/20 05:04:09;;;;;;;32.35;27.05;;;12.30;1.00;;;;;;5117629;28;20095;-48
2023/03/20 05:06:35;;;;;;;35.28;27.88;;;12.30;1.00;;;;;;5103671;28;20044;-47
2023/03/20 05:09:01;;;;;;;32.83;27.13;;;12.30;1.00;;;;;;5119030;28;20106;-48
2023/03/20 05:11:27;;;;;;;36.45;27.70;;;12.40;1.00;;;;;;5113267;28;20451;-49
2023/03/20 05:13:53;;;;;;;31.08;26.08;;;12.40;1.00;;;;;;5123934;28;20119;-51
2023/03/20 05:16:18;;;;;;;30.98;27.25;;;12.40;1.00;;;;;;5116147;28;20140;-49
2023/03/20 05:18:45;;;;;;;34.78;27.23;;;12.40;1.00;;;;;;5111684;28;20039;-52
2023/03/20 05:21:11;;;;;;;34.55;28.02;;;12.30;1.00;;;;;;5116401;27;20362;-48
2023/03/20 05:23:36;;;;;;;32.60;28.23;;;12.30;1.00;;;;;;5098031;28;20027;-51
2023/03/20 05:26:03;;;;;;;33.33;29.00;;;12.30;1.00;;;;;;5112670;27;20084;-53
2023/03/20 05:28:29;;;;;;;34.63;28.13;;;12.30;1.00;;;;;;5112885;28;20039;-49
2023/03/20 05:30:55;;;;;;;35.17;28.95;;;12.30;1.00;;;;;;5120018;27;20069;-50
2023/03/20 05:33:21;;;;;;;33.80;28.08;;;12.30;1.00;;;;;;5116373;28;20051;-48
2023/03/20 05:35:46;;;;;;;35.25;29.15;;;12.30;1.00;;;;;;5124548;27;20031;-51
2023/03/20 05:38:12;;;;;;;32.08;26.73;;;12.30;1.00;;;;;;5120197;27;20056;-48
2023/03/20 05:40:38;;;;;;;34.35;29.35;;;12.30;1.00;;;;;;5125577;27;20046;-50
2023/03/20 05:43:04;;;;;;;36.13;29.40;;;12.30;1.00;;;;;;5128269;27;20388;-47
2023/03/20 05:45:29;;;;;;;34.60;27.80;;;12.30;1.00;;;;;;5116667;28;20016;-52
2023/03/20 05:47:55;;;;;;;37.28;29.45;;;12.30;1.00;;;;;;5127837;27;20471;-50
2023/03/20 05:50:21;;;;;;;35.92;28.95;;;12.30;1.00;;;;;;5122206;27;20480;-50
2023/03/20 05:52:47;;;;;;;37.03;29.33;;;12.30;1.00;;;;;;5119156;27;20071;-51
2023/03/20 05:55:13;;;;;;;34.90;29.50;;;12.40;1.00;;;;;;5116177;28;20027;-48
2023/03/20 05:57:39;;;;;;;33.65;28.42;;;12.40;1.00;;;;;;5114572;27;20028;-47
2023/03/20 06:00:06;;;;;;;34.60;29.23;;;12.40;1.00;;;;;;5126977;27;20035;-51
2023/03/20 06:02:32;;;;;;;38.03;29.98;;;12.40;1.00;;;;;;5114153;27;20055;-48
2023/03/20 06:04:57;;;;;;;37.42;29.70;;;12.40;1.00;;;;;;5119891;27;20050;-52
2023/03/20 06:07:23;;;;;;;36.88;29.77;;;12.40;1.00;;;;;;5117894;27;20436;-49
2023/03/20 06:09:49;;;;;;;35.97;28.33;;;12.40;1.00;;;;;;5117754;27;20031;-50
2023/03/20 06:12:15;;;;;;;31.77;27.83;;;12.40;1.00;;;;;;5119764;27;20031;-47
2023/03/20 06:14:40;;;;;;;37.60;29.30;;;12.40;1.00;;;;;;5111761;27;20546;-52
2023/03/20 06:17:06;;;;;;;34.72;29.20;;;12.50;1.00;;;;;;5122193;27;20020;-47
2023/03/20 06:19:32;;;;;;;33.50;28.65;;;12.50;1.00;;;;;;5111832;27;20028;-47
2023/03/20 06:21:58;;;;;;;37.45;29.13;;;12.50;1.00;;;;;;5120469;27;20173;-46
2023/03/20 06:24:23;;;;;;;34.08;29.52;;;12.50;1.00;;;;;;5098352;28;20027;-49
2023/03/20 06:26:49;;;;;;;34.50;27.67;;;12.60;1.00;;;;;;5119372;27;20106;-46
2023/03/20 06:29:15;;;;;;;31.98;27.95;;;12.60;1.00;;;;;;5100131;27;20042;-49
2023/03/20 06:31:43;;;;;;;33.40;28.00;;;12.70;1.00;;;;;;5127743;27;20039;-50
2023/03/20 06:34:09;;;;;;;36.75;29.33;;;12.70;1.00;;;;;;5115530;27;20055;-48
2023/03/20 06:36:35;;;;;;;32.65;27.70;;;12.70;1.00;;;;;;5123821;27;20030;-49
2023/03/20 06:39:02;;;;;;;36.75;28.35;;;12.70;1.00;;;;;;5111582;28;20042;-50
2023/03/20 06:41:27;;;;;;;33.20;28.10;;;12.70;1.00;;;;;;5112679;28;20072;-49
2023/03/20 06:43:54;;;;;;;30.98;25.02;;;12.70;1.00;;;;;;5115478;27;20388;-48
2023/03/20 06:46:20;;;;;;;30.80;24.02;;;12.70;1.00;;;;;;5119660;27;20082;-50
2023/03/20 06:48:47;;;;;;;31.13;27.55;;;12.70;1.00;;;;;;5113945;28;20059;-48
2023/03/20 06:51:13;;;;;;;33.05;27.55;;;12.70;1.00;;;;;;5111638;27;20036;-51
2023/03/20 06:53:40;;;;;;;32.25;26.92;;;12.80;1.00;;;;;;5113991;28;20553;-53
2023/03/20 06:56:07;;;;;;;32.00;26.15;;;12.70;1.00;;;;;;5084177;28;20024;-52
2023/03/20 06:58:33;;;;;;;31.27;26.08;;;12.70;1.00;;;;;;5105328;28;20036;-47
2023/03/20 07:00:59;;;;;;;31.60;26.83;;;12.90;1.00;;;;;;5114082;27;20131;-49
2023/03/20 07:03:24;;;;;;;31.25;25.33;;;12.90;1.00;;;;;;5110735;28;20070;-47
2023/03/20 07:05:50;;;;;;;38.00;27.05;;;12.80;1.00;;;;;;5111825;27;20107;-47
2023/03/20 07:08:16;;;;;;;33.22;26.70;;;12.90;1.00;;;;;;5114828;28;20028;-53
2023/03/20 07:10:41;;;;;;;30.08;26.45;;;12.90;1.00;;;;;;5123496;27;20027;-49
2023/03/20 07:13:11;;;;;;;37.85;29.30;;;12.90;1.00;;;;;;5114531;28;20047;-49
2023/03/20 07:15:36;;;;;;;35.38;28.40;;;12.90;1.00;;;;;;5103262;28;20475;-52
2023/03/20 07:18:02;;;;;;;35.47;28.20;;;12.90;1.00;;;;;;5114768;28;20124;-47
2023/03/20 07:20:28;;;;;;;33.00;27.95;;;13.00;1.00;;;;;;5100281;28;20027;-51
2023/03/20 07:22:54;;;;;;;32.47;25.33;;;13.00;1.00;;;;;;5118326;27;20035;-47
2023/03/20 07:25:20;;;;;;;36.75;27.20;;;13.00;1.00;;;;;;5114418;28;20069;-53
2023/03/20 07:27:49;;;;;;;34.60;26.98;;;13.00;1.00;;;;;;5120581;27;20024;-49
2023/03/20 07:30:16;;;;;;;31.52;26.25;;;13.00;1.00;;;;;;5117062;27;20099;-51
2023/03/20 07:32:43;;;;;;;32.55;26.17;;;13.00;1.00;;;;;;5113833;28;20051;-48
2023/03/20 07:35:09;;;;;;;32.95;27.83;;;13.10;1.00;;;;;;5115348;27;20036;-47
2023/03/20 07:37:34;;;;;;;32.40;27.13;;;13.10;1.00;;;;;;5120877;27;20023;-51
2023/03/20 07:40:00;;;;;;;31.65;25.75;;;13.10;1.00;;;;;;5116310;27;20492;-48
2023/03/20 07:42:26;;;;;;;31.75;26.30;;;13.20;1.00;;;;;;5110524;27;20549;-50
2023/03/20 07:44:51;;;;;;;36.92;29.70;;;13.20;1.00;;;;;;5113959;28;20015;-49
2023/03/20 07:47:17;;;;;;;31.45;26.15;;;13.10;1.00;;;;;;5108940;27;20080;-53
2023/03/20 07:49:43;;;;;;;30.17;25.10;;;13.10;1.00;;;;;;5114920;27;20019;-49
2023/03/20 07:52:08;;;;;;;28.65;24.00;;;13.20;1.00;;;;;;5114088;27;20035;-48
2023/03/20 07:54:34;;;;;;;31.63;24.27;;;13.20;1.00;;;;;;5113887;28;20387;-55
2023/03/20 07:57:00;;;;;;;27.02;22.50;;;13.30;1.00;;;;;;5114716;27;20031;-50
2023/03/20 07:59:26;;;;;;;27.80;22.27;;;13.30;1.00;;;;;;5113712;28;20027;-58
2023/03/20 08:02:41;;;;;;;26.83;21.83;;;13.40;1.00;;;;;;5113385;27;20069;-55
2023/03/20 08:05:08;;;;;;;26.85;22.65;;;13.40;1.00;;;;;;5101979;27;20061;-56
2023/03/20 08:07:34;;;;;;;30.23;23.05;;;13.40;1.00;;;;;;5113726;28;20024;-54
2023/03/20 08:10:00;;;;;;;33.30;24.55;;;13.40;1.00;;;;;;5124012;27;20531;-56
2023/03/20 08:12:26;;;;;;;31.85;24.63;;;13.40;1.00;;;;;;5113754;28;20184;-58
2023/03/20 08:14:52;;;;;;;33.65;26.13;;;13.50;1.00;;;;;;5119601;27;20480;-55
2023/03/20 08:17:17;;;;;;;33.30;26.98;;;13.60;1.00;;;;;;5113444;27;20032;-55
2023/03/20 08:19:43;;;;;;;34.17;25.92;;;13.70;1.00;;;;;;5104238;28;20035;-55
2023/03/20 08:22:09;;;;;;;32.17;26.30;;;13.70;1.00;;;;;;5098008;28;20541;-54
2023/03/20 08:24:34;;;;;;;33.58;27.02;;;13.70;1.00;;;;;;5112779;28;20024;-54
2023/03/20 08:27:00;;;;;;;37.05;28.17;;;13.70;1.00;;;;;;5121205;27;20395;-59
2023/03/20 08:29:26;;;;;;;37.78;27.83;;;13.60;1.00;;;;;;5113404;28;20051;-56
2023/03/20 08:31:52;;;;;;;41.10;29.90;;;13.70;1.00;;;;;;5119202;28;20027;-52
2023/03/20 08:34:17;;;;;;;35.00;29.20;;;13.80;1.00;;;;;;5098418;28;20085;-50
2023/03/20 08:36:43;;;;;;;35.85;29.85;;;13.80;1.00;;;;;;5124612;28;20023;-54
2023/03/20 08:39:09;;;;;;;34.17;30.00;;;13.90;1.00;;;;;;5123062;28;20425;-61
2023/03/20 08:41:38;;;;;;;37.17;29.80;;;13.90;1.00;;;;;;5100068;28;20531;-60
2023/03/20 08:44:05;;;;;;;28.30;25.13;;;14.00;1.00;;;;;;5097958;28;20028;-53
2023/03/20 08:46:31;;;;;;;32.03;26.58;;;14.00;1.00;;;;;;5106330;28;20081;-54
2023/03/20 08:48:57;;;;;;;30.80;27.23;;;14.00;1.00;;;;;;5104694;28;20028;-60
2023/03/20 08:51:23;;;;;;;31.70;27.40;;;14.00;1.00;;;;;;5121916;28;20028;-59
2023/03/20 08:53:49;;;;;;;38.40;32.08;;;14.00;1.00;;;;;;5114143;28;20136;-58
2023/03/20 08:56:15;;;;;;;37.67;31.23;;;14.00;1.00;;;;;;5119408;27;20055;-52
2023/03/20 08:58:41;;;;;;;40.10;31.50;;;14.10;1.00;;;;;;5127526;27;20020;-49
2023/03/20 09:01:08;;;;;;;38.20;30.50;;;14.10;1.00;;;;;;5117131;28;20024;-59
2023/03/20 09:03:35;;;;;;;38.83;32.58;;;14.10;1.00;;;;;;5128595;27;20358;-62
2023/03/20 09:06:05;;;;;;;37.45;30.75;;;14.20;1.00;;;;;;5117499;28;20437;-50
2023/03/20 09:08:30;;;;;;;41.63;32.97;;;14.20;1.00;;;;;;5127607;27;20022;-49
2023/03/20 09:11:03;;;;;;;40.50;32.03;;;14.20;1.00;;;;;;5124425;27;20358;-51
2023/03/20 09:13:28;;;;;;;40.10;32.83;;;14.30;1.00;;;;;;5115785;28;20035;-52
2023/03/20 09:15:55;;;;;;;38.88;31.30;;;14.40;1.00;;;;;;5122607;27;20020;-56
2023/03/20 09:18:21;;;;;;;41.22;32.10;;;14.40;1.00;;;;;;5095741;28;20031;-54
2023/03/20 09:20:48;;;;;;;37.58;32.78;;;14.40;1.00;;;;;;5123208;27;20024;-58
2023/03/20 09:23:14;;;;;;;41.70;32.90;;;14.50;1.00;;;;;;5123174;27;20388;-59
2023/03/20 09:25:40;;;;;;;39.60;33.95;;;14.50;1.00;;;;;;5115862;28;20024;-59
2023/03/20 09:28:05;;;;;;;39.75;32.70;;;14.50;1.00;;;;;;5119546;27;20020;-56
2023/03/20 09:30:31;;;;;;;37.78;31.88;;;14.70;1.00;;;;;;5118569;27;20107;-62
2023/03/20 09:32:57;;;;;;;35.88;30.88;;;14.60;1.00;;;;;;5115919;28;20044;-62
2023/03/20 09:35:22;;;;;;;35.38;29.67;;;14.80;1.00;;;;;;5123854;27;20035;-52
2023/03/20 09:37:48;;;;;;;35.55;30.27;;;14.80;1.00;;;;;;5119544;27;20077;-51
2023/03/20 09:40:27;;;;;;;39.83;31.48;;;14.90;1.00;;;;;;5116216;27;20061;-51
2023/03/20 09:43:21;;;;;;;37.70;32.15;;;14.90;1.00;;;;;;5120235;27;20080;-63
2023/03/20 09:46:00;;;;;;;37.47;31.35;;;14.90;1.00;;;;;;5117805;27;20026;-57
2023/03/20 09:48:45;;;;;;;36.50;30.85;;;15.00;1.00;;;;;;5117445;27;20094;-55
2023/03/20 09:51:28;;;;;;;;;;;15.10;1.00;;;;;;5110072;28;20035;-55
2023/03/20 09:53:58;;;;;;;33.88;30.23;;;15.00;1.00;;;;;;5107449;28;19941;-53
2023/03/20 09:56:26;;;;;;;32.53;28.90;;;15.00;1.00;;;;;;5108481;28;20031;-60
2023/03/20 09:58:58;;;;;;;33.72;30.05;;;15.10;1.00;;;;;;5112990;28;20027;-56
2023/03/20 10:01:29;;;;;;;38.47;32.13;;;15.20;1.00;;;;;;5100453;28;20025;-53
2023/03/20 10:04:03;;;;;;;33.15;29.45;;;15.30;1.00;;;;;;5111457;28;20384;-51
2023/03/20 10:06:29;;;;;;;35.33;30.02;;;15.40;1.00;;;;;;5110949;28;20447;-67
2023/03/20 10:08:55;;;;;;;39.70;31.45;;;15.50;1.00;;;;;;5107595;28;20102;-50
2023/03/20 10:11:38;;;;;;;34.25;30.10;;;15.60;1.00;;;;;;5114018;28;20045;-59
2023/03/20 10:14:26;;;;;;;34.88;29.73;;;15.70;1.00;;;;;;5106891;28;20035;-60
2023/03/20 10:17:12;;;;;;;34.42;29.55;;;15.80;1.00;;;;;;5113720;28;20507;-59
2023/03/20 10:19:52;;;;;;;35.33;29.92;;;15.80;1.00;;;;;;5110734;28;20016;-58
2023/03/20 10:22:45;;;;;;;34.15;30.02;;;15.80;1.00;;;;;;5103361;28;20032;-54
2023/03/20 10:25:27;;;;;;;36.03;29.10;;;16.00;1.00;;;;;;5089439;28;20127;-48
2023/03/20 10:28:02;;;;;;;34.70;29.52;;;16.10;1.00;;;;;;5105625;28;20115;-53
2023/03/20 10:30:34;;;;;;;36.08;30.52;;;16.10;1.00;;;;;;5101733;28;20027;-48
2023/03/20 10:33:23;;;;;;;39.28;29.05;;;16.30;1.00;;;;;;5106678;28;20043;-50
2023/03/20 10:36:01;;;;;;;33.30;28.88;;;16.40;1.00;;;;;;5102188;28;20673;-60
2023/03/20 10:38:52;;;;;;;33.17;28.42;;;16.40;1.00;;;;;;5109962;27;20036;-49
2023/03/20 10:41:22;;;;;;;30.27;27.00;;;16.40;1.00;;;;;;5111087;27;20370;-60
2023/03/20 10:43:50;;;;;;;32.00;27.17;;;16.30;1.00;;;;;;5124702;27;20058;-59
2023/03/20 10:46:32;;;;;;;32.38;27.48;;;16.30;1.00;;;;;;5109674;28;20020;-51
2023/03/20 10:49:17;;;;;;;31.38;26.88;;;16.40;1.00;;;;;;5110120;27;20504;-54
2023/03/20 10:51:49;;;;;;;33.90;27.73;;;16.40;1.00;;;;;;5105704;28;20597;-51
2023/03/20 10:54:23;;;;;;;32.45;26.38;;;16.40;1.00;;;;;;5109094;27;20039;-49
2023/03/20 10:56:51;;;;;;;29.87;25.17;;;16.40;1.00;;;;;;5105921;28;20148;-51
2023/03/20 10:59:27;;;;;;;30.55;27.00;;;16.60;1.00;;;;;;5106660;27;20757;-52
2023/03/20 11:01:53;;;;;;;32.38;27.55;;;16.70;1.00;;;;;;5104391;28;20069;-60
2023/03/20 11:04:18;;;;;;;32.95;27.17;;;16.80;1.00;;;;;;5109755;28;20427;-53
2023/03/20 11:06:55;;;;;;;35.03;27.30;;;16.90;1.00;;;;;;5102766;27;20039;-61
2023/03/20 11:09:25;;;;;;;33.42;28.58;;;17.00;1.00;;;;;;5104624;27;20165;-60
2023/03/20 11:11:56;;;;;;;34.38;27.13;;;17.20;1.00;;;;;;5104562;28;20090;-59
2023/03/20 11:14:25;;;;;;;33.90;26.17;;;17.40;1.00;;;;;;5093289;28;20032;-59
2023/03/20 11:16:53;;;;;;;32.70;27.58;;;17.50;1.00;;;;;;5101048;28;20035;-58
2023/03/20 11:19:21;;;;;;;33.05;26.80;;;17.60;1.00;;;;;;5101463;27;20420;-49
2023/03/20 11:21:59;;;;;;;36.83;28.20;;;17.80;1.00;;;;;;5106854;27;20139;-52
2023/03/20 11:24:44;;;;;;;34.80;27.52;;;17.90;1.00;;;;;;5108778;27;20038;-59
2023/03/20 11:27:23;;;;;;;34.10;28.83;;;18.00;1.00;;;;;;5104057;28;20029;-60
2023/03/20 11:29:50;;;;;;;34.88;28.05;;;17.90;1.00;;;;;;5105301;28;20122;-60
2023/03/20 11:32:32;;;;;;;32.78;27.38;;;18.00;1.00;;;;;;5107599;27;20023;-60
2023/03/20 11:35:21;;;;;;;36.75;28.27;;;17.90;1.00;;;;;;5104533;28;20039;-55
2023/03/20 11:37:50;;;;;;;32.28;27.38;;;17.90;1.00;;;;;;5109397;27;20022;-52
2023/03/20 11:40:24;;;;;;;32.67;28.20;;;17.90;1.00;;;;;;5107421;27;20031;-49
2023/03/20 11:42:55;;;;;;;32.57;28.17;;;17.90;1.00;;;;;;5107621;27;20135;-45
2023/03/20 11:45:21;;;;;;;32.22;27.70;;;17.90;1.00;;;;;;5106821;28;20028;-48
2023/03/20 11:47:54;;;;;;;32.72;28.48;;;18.00;1.00;;;;;;5100509;28;20373;-46
2023/03/20 11:50:31;;;;;;;33.92;28.65;;;18.00;1.00;;;;;;5099976;28;20024;-51
2023/03/20 11:52:57;;;;;;;32.67;27.92;;;18.20;1.00;;;;;;5103980;28;20031;-49
2023/03/20 11:55:30;;;;;;;32.50;28.50;;;18.10;1.00;;;;;;5085559;28;20405;-50
2023/03/20 11:58:03;;;;;;;32.58;27.80;;;18.30;1.00;;;;;;5106852;28;21305;-53
2023/03/20 12:00:37;;;;;;;31.23;25.50;;;18.40;1.00;;;;;;5103469;28;20035;-49
2023/03/20 12:03:03;;;;;;;30.15;26.55;;;18.50;1.00;;;;;;5104741;28;20028;-51
2023/03/20 12:05:35;;;;;;;30.30;27.00;;;18.80;1.00;;;;;;5101374;28;20027;-50
2023/03/20 12:08:17;;;;;;;30.42;26.10;;;18.80;1.00;;;;;;5105938;28;20613;-51
2023/03/20 12:10:52;;;;;;;29.33;24.75;;;19.10;1.00;;;;;;5110165;28;20027;-50
2023/03/20 12:13:23;;;;;;;30.60;27.27;;;19.30;1.00;;;;;;5111906;28;20043;-52
2023/03/20 12:15:55;;;;;;;30.52;26.88;;;19.40;1.00;;;;;;5104212;28;20024;-48
2023/03/20 12:18:31;;;;;;;29.23;25.77;;;19.40;1.00;;;;;;5111652;28;20028;-52
2023/03/20 12:21:08;;;;;;;30.88;26.85;;;19.50;1.00;;;;;;5112368;28;20024;-51
2023/03/20 12:23:43;;;;;;;30.83;25.35;;;19.50;1.00;;;;;;5091334;28;20054;-48
2023/03/20 12:26:14;;;;;;;;;;;19.90;1.00;;;;;;5112009;28;20541;-55
2023/03/20 12:29:15;;;;;;;30.92;26.52;;;19.70;1.00;;;;;;5112478;28;19912;-50
2023/03/20 12:31:47;;;;;;;33.35;28.85;;;19.60;1.00;;;;;;5078222;28;20032;-49
2023/03/20 12:34:24;;;;;;;31.52;26.80;;;19.60;1.00;;;;;;5093744;28;20048;-51
2023/03/20 12:36:56;;;;;;;29.42;25.70;;;19.50;1.00;;;;;;5108431;28;20052;-51
2023/03/20 12:39:27;;;;;;;27.85;24.85;;;19.60;1.00;;;;;;5112322;28;20020;-50
2023/03/20 12:42:14;;;;;;;32.20;26.17;;;20.20;1.00;;;;;;5112576;28;20025;-51
2023/03/20 12:45:05;;;;;;;28.42;24.23;;;20.40;1.00;;;;;;5110658;28;20492;-50
2023/03/20 12:47:40;;;;;;;29.13;25.00;;;20.40;1.00;;;;;;5106363;28;20022;-48
2023/03/20 12:50:20;;;;;;;31.20;27.13;;;22.90;1.00;;;;;;5108668;28;20077;-55
2023/03/20 12:53:03;;;;;;;30.95;25.95;;;25.10;1.00;;;;;;5098171;28;20028;-48
2023/03/20 12:56:02;;;;;;;28.00;25.10;;;28.10;1.00;;;;;;5110567;28;20028;-51
2023/03/20 12:58:37;;;;;;;27.75;25.00;;;26.40;1.00;;;;;;5109685;28;20039;-48
2023/03/20 13:01:21;;;;;;;30.38;27.17;;;24.60;1.00;;;;;;5111997;28;20036;-55
2023/03/20 13:03:56;;;;;;;28.27;25.25;;;23.00;1.00;;;;;;5104837;28;20032;-51
2023/03/20 13:06:42;;;;;;;29.73;26.58;;;23.80;1.00;;;;;;5104861;28;20115;-49
2023/03/20 13:09:27;;;;;;;30.33;27.13;;;25.80;1.00;;;;;;5104548;28;20027;-49
2023/03/20 13:12:01;;;;;;;34.50;27.42;;;29.70;1.00;;;;;;5109014;28;20497;-51
2023/03/20 13:15:01;;;;;;;30.40;27.30;;;32.10;99.90;;;;;;5108903;28;20035;-48
2023/03/20 13:17:26;;;;;;;30.88;27.77;;;33.30;99.90;;;;;;5108166;28;20023;-48
2023/03/20 13:20:19;;;;;;;31.98;28.60;;;33.90;99.90;;;;;;5111612;28;20354;-50
2023/03/20 13:22:59;;;;;;;29.35;26.55;;;34.40;99.90;;;;;;5090285;28;20027;-49
2023/03/20 13:25:45;;;;;;;29.83;26.85;;;35.10;99.90;;;;;;5112059;28;20066;-49
2023/03/20 13:28:22;;;;;;;27.90;25.23;;;35.90;99.90;;;;;;5111398;28;20107;-53
2023/03/20 13:31:00;;;;;;;31.45;28.27;;;36.10;99.90;;;;;;5107819;28;20030;-49
2023/03/20 13:33:58;;;;;;;31.17;28.15;;;36.20;99.90;;;;;;5110858;28;20039;-53